Huvudsida
METAR-TAF:

METAR-TAF

Flygplatser :

Wales, Alaska, USA

latitud: 65-37-21N, longitud: 168-05-42W, höjd: 7 m

Aktuellt väderrapport

Denna rapport gjordes för 23 minuter sedan, klockan 17:56 UTC
Vind 16 kt från syd i byarna ända upp till 21 kt
Temperatur 2°C
Fuktighet 100%
Tryck 1024 hPa
Sikt: 16.1 km
Få moln på en höjd av 300 ft
Mulet på en höjd av 1600 ft

METAR: PAIW 141756Z AUTO 19016G21KT 10SM FEW003 OVC016 02/02 A3024 RMK AO2 UPE22 SLP241 P0000 60000 T00170017 10017 20011 51008 FZRANO

Tid: 10:19 (18:19 UTC)


TAF: saknas

Aktuella väderrapporter och prognoser från 4000 flygplatser (METAR- och TAF-rapporter).

De tillgängliga stationerna syns som gula och röda prickar på kartan.

För musen över prickarna för att se namnen på stationerna.

Klicka sedan för att få väderrapporter och prognoser.

För att ändra kartan: Klicka på de gröna knapparna med ett svart kors på för att zooma in; den gröna knappen med ett streck på för att zooma ut; eller på de gröna pilarna för angränsande kartor.


METAR-TAF: